sensor_id;sensor_type;location;lat;lon;timestamp;P1;durP1;ratioP1;P2;durP2;ratioP2
67776;SDS011;54576;52.020;5.536;2023-04-25T00:02:11;8.68;;;2.38;;
67776;SDS011;54576;52.020;5.536;2023-04-25T00:04:38;17.13;;;2.80;;
67776;SDS011;54576;52.020;5.536;2023-04-25T00:07:03;17.08;;;3.03;;
67776;SDS011;54576;52.020;5.536;2023-04-25T00:09:29;17.23;;;3.10;;
67776;SDS011;54576;52.020;5.536;2023-04-25T00:11:55;16.55;;;3.33;;
67776;SDS011;54576;52.020;5.536;2023-04-25T00:14:21;22.98;;;3.85;;
67776;SDS011;54576;52.020;5.536;2023-04-25T00:16:47;18.05;;;4.80;;
67776;SDS011;54576;52.020;5.536;2023-04-25T00:19:13;19.23;;;3.25;;
67776;SDS011;54576;52.020;5.536;2023-04-25T00:21:39;17.50;;;3.55;;
67776;SDS011;54576;52.020;5.536;2023-04-25T00:24:06;20.08;;;3.55;;
67776;SDS011;54576;52.020;5.536;2023-04-25T00:26:33;15.45;;;2.88;;
67776;SDS011;54576;52.020;5.536;2023-04-25T00:28:59;20.23;;;2.80;;
67776;SDS011;54576;52.020;5.536;2023-04-25T00:31:25;25.88;;;3.15;;
67776;SDS011;54576;52.020;5.536;2023-04-25T00:33:51;14.57;;;3.10;;
67776;SDS011;54576;52.020;5.536;2023-04-25T00:36:16;14.10;;;3.55;;
67776;SDS011;54576;52.020;5.536;2023-04-25T00:38:43;13.10;;;3.47;;
67776;SDS011;54576;52.020;5.536;2023-04-25T00:41:08;28.27;;;4.30;;
67776;SDS011;54576;52.020;5.536;2023-04-25T00:43:34;17.38;;;2.75;;
67776;SDS011;54576;52.020;5.536;2023-04-25T00:46:01;25.92;;;3.50;;
67776;SDS011;54576;52.020;5.536;2023-04-25T00:48:27;20.42;;;3.20;;
67776;SDS011;54576;52.020;5.536;2023-04-25T00:50:54;17.40;;;3.38;;
67776;SDS011;54576;52.020;5.536;2023-04-25T00:53:21;19.67;;;4.20;;
67776;SDS011;54576;52.020;5.536;2023-04-25T00:55:47;18.88;;;3.58;;
67776;SDS011;54576;52.020;5.536;2023-04-25T00:58:16;28.75;;;3.60;;
67776;SDS011;54576;52.020;5.536;2023-04-25T01:00:45;23.10;;;4.30;;
67776;SDS011;54576;52.020;5.536;2023-04-25T01:03:12;13.50;;;3.13;;
67776;SDS011;54576;52.020;5.536;2023-04-25T01:05:42;18.88;;;3.20;;
67776;SDS011;54576;52.020;5.536;2023-04-25T01:08:08;17.33;;;3.38;;
67776;SDS011;54576;52.020;5.536;2023-04-25T01:10:34;27.55;;;3.67;;
67776;SDS011;54576;52.020;5.536;2023-04-25T01:13:00;20.25;;;3.17;;
67776;SDS011;54576;52.020;5.536;2023-04-25T01:15:26;15.35;;;3.03;;
67776;SDS011;54576;52.020;5.536;2023-04-25T01:17:51;20.85;;;3.85;;
67776;SDS011;54576;52.020;5.536;2023-04-25T01:20:18;20.88;;;3.25;;
67776;SDS011;54576;52.020;5.536;2023-04-25T01:22:47;15.70;;;2.80;;
67776;SDS011;54576;52.020;5.536;2023-04-25T01:25:13;19.73;;;3.08;;
67776;SDS011;54576;52.020;5.536;2023-04-25T01:27:39;18.40;;;2.53;;
67776;SDS011;54576;52.020;5.536;2023-04-25T01:30:05;22.85;;;3.55;;
67776;SDS011;54576;52.020;5.536;2023-04-25T01:32:31;21.60;;;3.65;;
67776;SDS011;54576;52.020;5.536;2023-04-25T01:35:03;14.82;;;2.70;;
67776;SDS011;54576;52.020;5.536;2023-04-25T01:37:34;19.27;;;4.05;;
67776;SDS011;54576;52.020;5.536;2023-04-25T01:40:03;22.20;;;3.65;;
67776;SDS011;54576;52.020;5.536;2023-04-25T01:42:30;23.70;;;4.03;;
67776;SDS011;54576;52.020;5.536;2023-04-25T01:44:57;21.67;;;3.30;;
67776;SDS011;54576;52.020;5.536;2023-04-25T01:47:23;25.55;;;4.38;;
67776;SDS011;54576;52.020;5.536;2023-04-25T01:49:48;29.10;;;4.05;;
67776;SDS011;54576;52.020;5.536;2023-04-25T01:52:14;20.40;;;3.78;;
67776;SDS011;54576;52.020;5.536;2023-04-25T01:54:40;20.05;;;3.03;;
67776;SDS011;54576;52.020;5.536;2023-04-25T01:57:12;20.30;;;3.70;;
67776;SDS011;54576;52.020;5.536;2023-04-25T01:59:39;41.05;;;4.72;;
67776;SDS011;54576;52.020;5.536;2023-04-25T02:02:06;26.23;;;4.35;;
67776;SDS011;54576;52.020;5.536;2023-04-25T02:04:32;30.45;;;4.50;;
67776;SDS011;54576;52.020;5.536;2023-04-25T02:06:58;17.85;;;3.53;;
67776;SDS011;54576;52.020;5.536;2023-04-25T02:09:26;17.02;;;4.32;;
67776;SDS011;54576;52.020;5.536;2023-04-25T02:11:52;14.30;;;3.20;;
67776;SDS011;54576;52.020;5.536;2023-04-25T02:14:18;21.88;;;3.20;;
67776;SDS011;54576;52.020;5.536;2023-04-25T02:16:43;13.32;;;2.53;;
67776;SDS011;54576;52.020;5.536;2023-04-25T02:19:09;18.85;;;3.22;;
67776;SDS011;54576;52.020;5.536;2023-04-25T02:21:35;11.43;;;2.25;;
67776;SDS011;54576;52.020;5.536;2023-04-25T02:24:02;24.00;;;3.30;;
67776;SDS011;54576;52.020;5.536;2023-04-25T02:26:28;26.02;;;4.28;;
67776;SDS011;54576;52.020;5.536;2023-04-25T02:28:54;28.33;;;3.75;;
67776;SDS011;54576;52.020;5.536;2023-04-25T02:31:21;15.77;;;2.70;;
67776;SDS011;54576;52.020;5.536;2023-04-25T02:33:47;24.25;;;3.00;;
67776;SDS011;54576;52.020;5.536;2023-04-25T02:36:12;22.83;;;3.95;;
67776;SDS011;54576;52.020;5.536;2023-04-25T02:38:38;8.35;;;2.50;;
67776;SDS011;54576;52.020;5.536;2023-04-25T02:41:04;25.05;;;3.90;;
67776;SDS011;54576;52.020;5.536;2023-04-25T02:43:30;11.38;;;3.00;;
67776;SDS011;54576;52.020;5.536;2023-04-25T02:45:55;25.27;;;3.65;;
67776;SDS011;54576;52.020;5.536;2023-04-25T02:48:21;21.30;;;2.92;;
67776;SDS011;54576;52.020;5.536;2023-04-25T02:50:46;16.52;;;3.25;;
67776;SDS011;54576;52.020;5.536;2023-04-25T02:53:12;18.05;;;3.33;;
67776;SDS011;54576;52.020;5.536;2023-04-25T02:55:38;19.42;;;2.97;;
67776;SDS011;54576;52.020;5.536;2023-04-25T02:58:03;20.40;;;3.25;;
67776;SDS011;54576;52.020;5.536;2023-04-25T03:00:29;12.85;;;2.75;;
67776;SDS011;54576;52.020;5.536;2023-04-25T03:02:55;18.88;;;2.63;;
67776;SDS011;54576;52.020;5.536;2023-04-25T03:05:20;18.70;;;3.60;;
67776;SDS011;54576;52.020;5.536;2023-04-25T03:07:46;14.00;;;2.95;;
67776;SDS011;54576;52.020;5.536;2023-04-25T03:10:12;13.85;;;2.28;;
67776;SDS011;54576;52.020;5.536;2023-04-25T03:12:37;23.80;;;4.20;;
67776;SDS011;54576;52.020;5.536;2023-04-25T03:15:03;19.85;;;2.90;;
67776;SDS011;54576;52.020;5.536;2023-04-25T03:17:29;11.85;;;3.47;;
67776;SDS011;54576;52.020;5.536;2023-04-25T03:19:55;19.25;;;3.00;;
67776;SDS011;54576;52.020;5.536;2023-04-25T03:22:22;12.80;;;2.88;;
67776;SDS011;54576;52.020;5.536;2023-04-25T03:24:48;15.48;;;3.08;;
67776;SDS011;54576;52.020;5.536;2023-04-25T03:27:14;19.95;;;3.15;;
67776;SDS011;54576;52.020;5.536;2023-04-25T03:29:40;22.77;;;3.17;;
67776;SDS011;54576;52.020;5.536;2023-04-25T03:32:06;20.02;;;3.65;;
67776;SDS011;54576;52.020;5.536;2023-04-25T03:34:31;12.95;;;3.33;;
67776;SDS011;54576;52.020;5.536;2023-04-25T03:36:57;18.90;;;2.88;;
67776;SDS011;54576;52.020;5.536;2023-04-25T03:39:22;19.15;;;4.00;;
67776;SDS011;54576;52.020;5.536;2023-04-25T03:41:48;15.52;;;3.72;;
67776;SDS011;54576;52.020;5.536;2023-04-25T03:44:14;20.67;;;3.70;;
67776;SDS011;54576;52.020;5.536;2023-04-25T03:46:39;26.85;;;3.60;;
67776;SDS011;54576;52.020;5.536;2023-04-25T03:49:05;17.65;;;3.70;;
67776;SDS011;54576;52.020;5.536;2023-04-25T03:51:31;16.85;;;3.38;;
67776;SDS011;54576;52.020;5.536;2023-04-25T03:53:56;16.10;;;4.03;;
67776;SDS011;54576;52.020;5.536;2023-04-25T03:56:22;15.27;;;3.45;;
67776;SDS011;54576;52.020;5.536;2023-04-25T03:58:47;16.60;;;3.58;;
67776;SDS011;54576;52.020;5.536;2023-04-25T04:01:13;21.52;;;4.43;;
67776;SDS011;54576;52.020;5.536;2023-04-25T04:03:39;13.90;;;3.13;;
67776;SDS011;54576;52.020;5.536;2023-04-25T04:06:05;19.33;;;3.17;;
67776;SDS011;54576;52.020;5.536;2023-04-25T04:08:32;14.27;;;3.20;;
67776;SDS011;54576;52.020;5.536;2023-04-25T04:10:58;25.23;;;3.67;;
67776;SDS011;54576;52.020;5.536;2023-04-25T04:13:25;23.45;;;3.33;;
67776;SDS011;54576;52.020;5.536;2023-04-25T04:15:54;24.05;;;3.05;;
67776;SDS011;54576;52.020;5.536;2023-04-25T04:18:22;15.90;;;3.08;;
67776;SDS011;54576;52.020;5.536;2023-04-25T04:20:48;18.05;;;3.08;;
67776;SDS011;54576;52.020;5.536;2023-04-25T04:23:14;12.52;;;2.42;;
67776;SDS011;54576;52.020;5.536;2023-04-25T04:25:40;22.00;;;3.17;;
67776;SDS011;54576;52.020;5.536;2023-04-25T04:28:06;14.10;;;2.25;;
67776;SDS011;54576;52.020;5.536;2023-04-25T04:30:32;19.90;;;2.58;;
67776;SDS011;54576;52.020;5.536;2023-04-25T04:33:01;13.90;;;2.22;;
67776;SDS011;54576;52.020;5.536;2023-04-25T04:35:30;14.25;;;3.10;;
67776;SDS011;54576;52.020;5.536;2023-04-25T04:37:56;9.13;;;2.38;;
67776;SDS011;54576;52.020;5.536;2023-04-25T04:40:21;13.50;;;3.03;;
67776;SDS011;54576;52.020;5.536;2023-04-25T04:42:47;20.35;;;3.10;;
67776;SDS011;54576;52.020;5.536;2023-04-25T04:45:13;13.52;;;2.55;;
67776;SDS011;54576;52.020;5.536;2023-04-25T04:47:39;15.35;;;2.58;;
67776;SDS011;54576;52.020;5.536;2023-04-25T04:50:08;22.10;;;2.85;;
67776;SDS011;54576;52.020;5.536;2023-04-25T04:52:35;15.23;;;3.08;;
67776;SDS011;54576;52.020;5.536;2023-04-25T04:55:02;18.90;;;3.60;;
67776;SDS011;54576;52.020;5.536;2023-04-25T04:57:29;20.83;;;2.78;;
67776;SDS011;54576;52.020;5.536;2023-04-25T04:59:54;18.02;;;3.22;;
67776;SDS011;54576;52.020;5.536;2023-04-25T05:02:20;16.38;;;2.47;;
67776;SDS011;54576;52.020;5.536;2023-04-25T05:04:46;12.35;;;2.40;;
67776;SDS011;54576;52.020;5.536;2023-04-25T05:07:11;15.27;;;1.83;;
67776;SDS011;54576;52.020;5.536;2023-04-25T05:09:37;20.98;;;3.28;;
67776;SDS011;54576;52.020;5.536;2023-04-25T05:12:03;18.40;;;2.83;;
67776;SDS011;54576;52.020;5.536;2023-04-25T05:14:28;13.35;;;2.33;;
67776;SDS011;54576;52.020;5.536;2023-04-25T05:16:54;14.93;;;2.42;;
67776;SDS011;54576;52.020;5.536;2023-04-25T05:19:20;17.25;;;2.50;;
67776;SDS011;54576;52.020;5.536;2023-04-25T05:21:45;17.15;;;3.10;;
67776;SDS011;54576;52.020;5.536;2023-04-25T05:24:11;22.38;;;2.75;;
67776;SDS011;54576;52.020;5.536;2023-04-25T05:26:37;13.57;;;2.03;;
67776;SDS011;54576;52.020;5.536;2023-04-25T05:29:02;10.60;;;2.35;;
67776;SDS011;54576;52.020;5.536;2023-04-25T05:31:28;13.60;;;2.42;;
67776;SDS011;54576;52.020;5.536;2023-04-25T05:33:54;8.30;;;2.40;;
67776;SDS011;54576;52.020;5.536;2023-04-25T05:36:19;10.55;;;2.50;;
67776;SDS011;54576;52.020;5.536;2023-04-25T05:38:45;17.50;;;2.50;;
67776;SDS011;54576;52.020;5.536;2023-04-25T05:41:11;10.98;;;1.65;;
67776;SDS011;54576;52.020;5.536;2023-04-25T05:43:36;18.15;;;2.08;;
67776;SDS011;54576;52.020;5.536;2023-04-25T05:46:02;10.02;;;1.90;;
67776;SDS011;54576;52.020;5.536;2023-04-25T05:48:27;12.05;;;2.83;;
67776;SDS011;54576;52.020;5.536;2023-04-25T05:50:56;13.15;;;2.22;;
67776;SDS011;54576;52.020;5.536;2023-04-25T05:53:22;20.02;;;2.28;;
67776;SDS011;54576;52.020;5.536;2023-04-25T05:55:47;18.55;;;2.28;;
67776;SDS011;54576;52.020;5.536;2023-04-25T05:58:13;15.93;;;2.67;;
67776;SDS011;54576;52.020;5.536;2023-04-25T06:00:38;14.13;;;2.60;;
67776;SDS011;54576;52.020;5.536;2023-04-25T06:03:06;10.43;;;2.67;;
67776;SDS011;54576;52.020;5.536;2023-04-25T06:05:34;12.77;;;2.08;;
67776;SDS011;54576;52.020;5.536;2023-04-25T06:08:00;11.00;;;2.35;;
67776;SDS011;54576;52.020;5.536;2023-04-25T06:10:28;12.00;;;2.10;;
67776;SDS011;54576;52.020;5.536;2023-04-25T06:12:54;15.13;;;2.00;;
67776;SDS011;54576;52.020;5.536;2023-04-25T06:15:19;12.57;;;2.05;;
67776;SDS011;54576;52.020;5.536;2023-04-25T06:17:45;13.02;;;1.70;;
67776;SDS011;54576;52.020;5.536;2023-04-25T06:20:10;12.60;;;1.83;;
67776;SDS011;54576;52.020;5.536;2023-04-25T06:22:36;13.57;;;2.42;;
67776;SDS011;54576;52.020;5.536;2023-04-25T06:25:02;14.52;;;2.28;;
67776;SDS011;54576;52.020;5.536;2023-04-25T06:27:29;16.02;;;1.90;;
67776;SDS011;54576;52.020;5.536;2023-04-25T06:29:55;13.85;;;2.20;;
67776;SDS011;54576;52.020;5.536;2023-04-25T06:32:20;21.95;;;1.98;;
67776;SDS011;54576;52.020;5.536;2023-04-25T06:34:46;12.88;;;1.63;;
67776;SDS011;54576;52.020;5.536;2023-04-25T06:37:11;10.15;;;1.75;;
67776;SDS011;54576;52.020;5.536;2023-04-25T06:39:37;13.50;;;1.95;;
67776;SDS011;54576;52.020;5.536;2023-04-25T06:42:02;10.07;;;1.90;;
67776;SDS011;54576;52.020;5.536;2023-04-25T06:44:28;12.93;;;2.15;;
67776;SDS011;54576;52.020;5.536;2023-04-25T06:46:54;9.77;;;1.48;;
67776;SDS011;54576;52.020;5.536;2023-04-25T06:49:20;13.05;;;1.83;;
67776;SDS011;54576;52.020;5.536;2023-04-25T06:51:46;15.10;;;1.83;;
67776;SDS011;54576;52.020;5.536;2023-04-25T06:54:11;14.18;;;2.40;;
67776;SDS011;54576;52.020;5.536;2023-04-25T06:56:37;12.40;;;1.98;;
67776;SDS011;54576;52.020;5.536;2023-04-25T06:59:02;20.77;;;1.90;;
67776;SDS011;54576;52.020;5.536;2023-04-25T07:01:28;12.10;;;2.05;;
67776;SDS011;54576;52.020;5.536;2023-04-25T07:03:53;10.10;;;2.40;;
67776;SDS011;54576;52.020;5.536;2023-04-25T07:06:19;16.70;;;2.25;;
67776;SDS011;54576;52.020;5.536;2023-04-25T07:08:45;10.32;;;2.75;;
67776;SDS011;54576;52.020;5.536;2023-04-25T07:11:10;11.27;;;1.65;;
67776;SDS011;54576;52.020;5.536;2023-04-25T07:13:36;21.40;;;3.58;;
67776;SDS011;54576;52.020;5.536;2023-04-25T07:16:01;8.07;;;2.10;;
67776;SDS011;54576;52.020;5.536;2023-04-25T07:18:28;13.07;;;2.17;;
67776;SDS011;54576;52.020;5.536;2023-04-25T07:20:53;20.00;;;2.30;;
67776;SDS011;54576;52.020;5.536;2023-04-25T07:23:19;14.30;;;2.08;;
67776;SDS011;54576;52.020;5.536;2023-04-25T07:25:45;18.85;;;2.53;;
67776;SDS011;54576;52.020;5.536;2023-04-25T07:28:11;23.70;;;2.25;;
67776;SDS011;54576;52.020;5.536;2023-04-25T07:30:36;12.38;;;2.03;;
67776;SDS011;54576;52.020;5.536;2023-04-25T07:33:02;11.80;;;3.10;;
67776;SDS011;54576;52.020;5.536;2023-04-25T07:35:28;13.90;;;2.25;;
67776;SDS011;54576;52.020;5.536;2023-04-25T07:37:53;11.90;;;1.90;;
67776;SDS011;54576;52.020;5.536;2023-04-25T07:40:19;10.10;;;1.80;;
67776;SDS011;54576;52.020;5.536;2023-04-25T07:42:44;14.98;;;2.05;;
67776;SDS011;54576;52.020;5.536;2023-04-25T07:45:10;15.82;;;1.63;;
67776;SDS011;54576;52.020;5.536;2023-04-25T07:47:35;6.13;;;1.40;;
67776;SDS011;54576;52.020;5.536;2023-04-25T07:50:01;6.18;;;1.92;;
67776;SDS011;54576;52.020;5.536;2023-04-25T07:52:28;8.80;;;1.48;;
67776;SDS011;54576;52.020;5.536;2023-04-25T07:54:53;11.82;;;2.10;;
67776;SDS011;54576;52.020;5.536;2023-04-25T07:57:23;9.55;;;1.65;;
67776;SDS011;54576;52.020;5.536;2023-04-25T07:59:49;8.57;;;1.45;;
67776;SDS011;54576;52.020;5.536;2023-04-25T08:02:14;10.88;;;1.65;;
67776;SDS011;54576;52.020;5.536;2023-04-25T08:04:40;13.13;;;1.90;;
67776;SDS011;54576;52.020;5.536;2023-04-25T08:07:05;5.40;;;1.33;;
67776;SDS011;54576;52.020;5.536;2023-04-25T08:09:31;6.43;;;1.50;;
67776;SDS011;54576;52.020;5.536;2023-04-25T08:12:01;10.25;;;2.03;;
67776;SDS011;54576;52.020;5.536;2023-04-25T08:14:27;8.48;;;1.55;;
67776;SDS011;54576;52.020;5.536;2023-04-25T08:16:56;11.18;;;1.83;;
67776;SDS011;54576;52.020;5.536;2023-04-25T08:19:21;13.32;;;1.50;;
67776;SDS011;54576;52.020;5.536;2023-04-25T08:21:47;7.13;;;1.27;;
67776;SDS011;54576;52.020;5.536;2023-04-25T08:24:12;12.60;;;2.13;;
67776;SDS011;54576;52.020;5.536;2023-04-25T08:26:38;6.30;;;1.35;;
67776;SDS011;54576;52.020;5.536;2023-04-25T08:29:04;6.43;;;1.40;;
67776;SDS011;54576;52.020;5.536;2023-04-25T08:31:30;6.57;;;1.25;;
67776;SDS011;54576;52.020;5.536;2023-04-25T08:33:56;9.60;;;1.60;;
67776;SDS011;54576;52.020;5.536;2023-04-25T08:36:21;6.07;;;1.85;;
67776;SDS011;54576;52.020;5.536;2023-04-25T08:38:47;9.52;;;1.63;;
67776;SDS011;54576;52.020;5.536;2023-04-25T08:41:13;6.97;;;1.13;;
67776;SDS011;54576;52.020;5.536;2023-04-25T08:43:40;12.00;;;1.58;;
67776;SDS011;54576;52.020;5.536;2023-04-25T08:46:08;6.35;;;1.60;;
67776;SDS011;54576;52.020;5.536;2023-04-25T08:48:35;6.97;;;1.52;;
67776;SDS011;54576;52.020;5.536;2023-04-25T08:51:01;4.80;;;1.25;;
67776;SDS011;54576;52.020;5.536;2023-04-25T08:53:30;5.95;;;1.17;;
67776;SDS011;54576;52.020;5.536;2023-04-25T08:56:03;12.17;;;1.30;;
67776;SDS011;54576;52.020;5.536;2023-04-25T08:58:30;5.20;;;1.20;;
67776;SDS011;54576;52.020;5.536;2023-04-25T09:00:57;7.28;;;1.45;;
67776;SDS011;54576;52.020;5.536;2023-04-25T09:03:22;20.77;;;4.15;;
67776;SDS011;54576;52.020;5.536;2023-04-25T09:05:48;3.00;;;0.90;;
67776;SDS011;54576;52.020;5.536;2023-04-25T09:08:15;5.15;;;1.15;;
67776;SDS011;54576;52.020;5.536;2023-04-25T09:10:40;6.38;;;1.30;;
67776;SDS011;54576;52.020;5.536;2023-04-25T09:15:47;5.10;;;1.08;;
67776;SDS011;54576;52.020;5.536;2023-04-25T09:18:21;3.78;;;0.80;;
67776;SDS011;54576;52.020;5.536;2023-04-25T09:21:06;8.52;;;1.00;;
67776;SDS011;54576;52.020;5.536;2023-04-25T09:24:06;10.88;;;0.95;;
67776;SDS011;54576;52.020;5.536;2023-04-25T09:26:25;7.72;;;1.17;;
67776;SDS011;54576;52.020;5.536;2023-04-25T09:28:57;7.07;;;1.17;;
67776;SDS011;54576;52.020;5.536;2023-04-25T09:31:31;6.07;;;1.00;;
67776;SDS011;54576;52.020;5.536;2023-04-25T09:34:01;14.43;;;1.90;;
67776;SDS011;54576;52.020;5.536;2023-04-25T09:36:27;5.18;;;1.10;;
67776;SDS011;54576;52.020;5.536;2023-04-25T09:38:54;7.38;;;1.20;;
67776;SDS011;54576;52.020;5.536;2023-04-25T09:41:24;6.70;;;1.40;;
67776;SDS011;54576;52.020;5.536;2023-04-25T09:43:50;2.20;;;0.70;;
67776;SDS011;54576;52.020;5.536;2023-04-25T09:46:15;9.77;;;1.30;;
67776;SDS011;54576;52.020;5.536;2023-04-25T09:48:47;5.25;;;1.10;;
67776;SDS011;54576;52.020;5.536;2023-04-25T09:51:15;11.60;;;2.83;;
67776;SDS011;54576;52.020;5.536;2023-04-25T09:53:44;7.78;;;1.15;;
67776;SDS011;54576;52.020;5.536;2023-04-25T09:56:18;4.53;;;1.30;;
67776;SDS011;54576;52.020;5.536;2023-04-25T10:01:11;7.80;;;1.40;;
67776;SDS011;54576;52.020;5.536;2023-04-25T10:03:38;7.50;;;1.40;;
67776;SDS011;54576;52.020;5.536;2023-04-25T10:06:07;6.38;;;1.45;;
67776;SDS011;54576;52.020;5.536;2023-04-25T10:08:35;5.97;;;1.42;;
67776;SDS011;54576;52.020;5.536;2023-04-25T10:11:08;8.40;;;1.92;;
67776;SDS011;54576;52.020;5.536;2023-04-25T10:13:34;3.67;;;1.35;;
67776;SDS011;54576;52.020;5.536;2023-04-25T10:16:01;7.25;;;1.13;;
67776;SDS011;54576;52.020;5.536;2023-04-25T10:18:29;5.88;;;1.00;;
67776;SDS011;54576;52.020;5.536;2023-04-25T10:20:59;3.70;;;1.05;;
67776;SDS011;54576;52.020;5.536;2023-04-25T10:23:29;4.18;;;1.40;;
67776;SDS011;54576;52.020;5.536;2023-04-25T10:25:56;5.72;;;1.10;;
67776;SDS011;54576;52.020;5.536;2023-04-25T10:28:22;7.80;;;1.30;;
67776;SDS011;54576;52.020;5.536;2023-04-25T10:31:01;5.05;;;1.00;;
67776;SDS011;54576;52.020;5.536;2023-04-25T10:33:33;3.33;;;0.70;;
67776;SDS011;54576;52.020;5.536;2023-04-25T10:36:08;11.77;;;1.15;;
67776;SDS011;54576;52.020;5.536;2023-04-25T10:38:37;10.40;;;1.25;;
67776;SDS011;54576;52.020;5.536;2023-04-25T10:41:04;3.90;;;1.13;;
67776;SDS011;54576;52.020;5.536;2023-04-25T10:45:56;2.40;;;0.80;;
67776;SDS011;54576;52.020;5.536;2023-04-25T10:48:27;5.20;;;0.82;;
67776;SDS011;54576;52.020;5.536;2023-04-25T10:51:15;3.38;;;0.90;;
67776;SDS011;54576;52.020;5.536;2023-04-25T10:54:07;4.95;;;1.17;;
67776;SDS011;54576;52.020;5.536;2023-04-25T10:56:37;3.63;;;1.20;;
67776;SDS011;54576;52.020;5.536;2023-04-25T10:59:12;4.63;;;1.10;;
67776;SDS011;54576;52.020;5.536;2023-04-25T11:01:52;11.63;;;1.23;;
67776;SDS011;54576;52.020;5.536;2023-04-25T11:09:17;6.43;;;1.13;;
67776;SDS011;54576;52.020;5.536;2023-04-25T11:11:42;4.63;;;0.80;;
67776;SDS011;54576;52.020;5.536;2023-04-25T11:14:08;5.50;;;1.13;;
67776;SDS011;54576;52.020;5.536;2023-04-25T11:16:33;3.10;;;0.82;;
67776;SDS011;54576;52.020;5.536;2023-04-25T11:19:01;5.25;;;1.00;;
67776;SDS011;54576;52.020;5.536;2023-04-25T11:21:27;9.65;;;1.20;;
67776;SDS011;54576;52.020;5.536;2023-04-25T11:23:53;9.15;;;1.80;;
67776;SDS011;54576;52.020;5.536;2023-04-25T11:26:21;5.47;;;1.30;;
67776;SDS011;54576;52.020;5.536;2023-04-25T11:28:47;5.15;;;1.17;;
67776;SDS011;54576;52.020;5.536;2023-04-25T11:31:14;3.35;;;1.00;;
67776;SDS011;54576;52.020;5.536;2023-04-25T11:33:40;3.40;;;1.20;;
67776;SDS011;54576;52.020;5.536;2023-04-25T11:36:07;3.33;;;0.98;;
67776;SDS011;54576;52.020;5.536;2023-04-25T11:38:33;3.35;;;1.05;;
67776;SDS011;54576;52.020;5.536;2023-04-25T11:40:59;4.63;;;0.98;;
67776;SDS011;54576;52.020;5.536;2023-04-25T11:43:25;6.40;;;0.93;;
67776;SDS011;54576;52.020;5.536;2023-04-25T11:45:51;3.33;;;0.80;;
67776;SDS011;54576;52.020;5.536;2023-04-25T11:48:17;3.67;;;0.85;;
67776;SDS011;54576;52.020;5.536;2023-04-25T11:50:44;4.35;;;1.20;;
67776;SDS011;54576;52.020;5.536;2023-04-25T11:53:10;4.20;;;1.15;;
67776;SDS011;54576;52.020;5.536;2023-04-25T11:55:36;5.57;;;0.68;;
67776;SDS011;54576;52.020;5.536;2023-04-25T11:58:02;6.53;;;1.38;;
67776;SDS011;54576;52.020;5.536;2023-04-25T12:00:29;5.10;;;1.10;;
67776;SDS011;54576;52.020;5.536;2023-04-25T12:02:56;3.20;;;0.75;;
67776;SDS011;54576;52.020;5.536;2023-04-25T12:05:27;8.18;;;1.20;;
67776;SDS011;54576;52.020;5.536;2023-04-25T12:07:55;10.13;;;1.40;;
67776;SDS011;54576;52.020;5.536;2023-04-25T12:10:20;13.13;;;1.13;;
67776;SDS011;54576;52.020;5.536;2023-04-25T12:12:47;6.47;;;1.33;;
67776;SDS011;54576;52.020;5.536;2023-04-25T12:15:14;4.10;;;1.13;;
67776;SDS011;54576;52.020;5.536;2023-04-25T12:17:44;6.18;;;1.00;;
67776;SDS011;54576;52.020;5.536;2023-04-25T12:20:19;3.28;;;1.20;;
67776;SDS011;54576;52.020;5.536;2023-04-25T12:22:46;7.53;;;1.38;;
67776;SDS011;54576;52.020;5.536;2023-04-25T12:25:14;11.00;;;1.63;;
67776;SDS011;54576;52.020;5.536;2023-04-25T12:28:10;11.43;;;1.42;;
67776;SDS011;54576;52.020;5.536;2023-04-25T12:30:57;7.05;;;0.80;;
67776;SDS011;54576;52.020;5.536;2023-04-25T12:33:23;8.27;;;1.08;;
67776;SDS011;54576;52.020;5.536;2023-04-25T12:35:50;6.65;;;1.40;;
67776;SDS011;54576;52.020;5.536;2023-04-25T12:40:51;5.07;;;1.20;;
67776;SDS011;54576;52.020;5.536;2023-04-25T12:43:16;6.15;;;1.23;;
67776;SDS011;54576;52.020;5.536;2023-04-25T12:45:43;2.00;;;0.90;;
67776;SDS011;54576;52.020;5.536;2023-04-25T12:48:09;4.13;;;1.02;;
67776;SDS011;54576;52.020;5.536;2023-04-25T12:50:35;9.05;;;1.30;;
67776;SDS011;54576;52.020;5.536;2023-04-25T12:53:00;9.68;;;1.15;;
67776;SDS011;54576;52.020;5.536;2023-04-25T12:55:26;4.32;;;1.20;;
67776;SDS011;54576;52.020;5.536;2023-04-25T12:57:51;3.70;;;1.35;;
67776;SDS011;54576;52.020;5.536;2023-04-25T13:00:20;5.47;;;1.00;;
67776;SDS011;54576;52.020;5.536;2023-04-25T13:02:49;6.80;;;0.80;;
67776;SDS011;54576;52.020;5.536;2023-04-25T13:05:15;5.43;;;1.58;;
67776;SDS011;54576;52.020;5.536;2023-04-25T13:07:40;2.75;;;0.77;;
67776;SDS011;54576;52.020;5.536;2023-04-25T13:10:06;4.68;;;1.20;;
67776;SDS011;54576;52.020;5.536;2023-04-25T13:12:32;12.20;;;1.10;;
67776;SDS011;54576;52.020;5.536;2023-04-25T13:14:58;2.67;;;1.08;;
67776;SDS011;54576;52.020;5.536;2023-04-25T13:17:23;3.85;;;1.30;;
67776;SDS011;54576;52.020;5.536;2023-04-25T13:19:49;3.42;;;1.05;;
67776;SDS011;54576;52.020;5.536;2023-04-25T13:22:15;5.05;;;0.98;;
67776;SDS011;54576;52.020;5.536;2023-04-25T13:24:42;5.65;;;1.00;;
67776;SDS011;54576;52.020;5.536;2023-04-25T13:27:07;9.82;;;1.42;;
67776;SDS011;54576;52.020;5.536;2023-04-25T13:29:33;4.25;;;1.65;;
67776;SDS011;54576;52.020;5.536;2023-04-25T13:32:00;8.35;;;1.63;;
67776;SDS011;54576;52.020;5.536;2023-04-25T13:34:26;5.97;;;1.25;;
67776;SDS011;54576;52.020;5.536;2023-04-25T13:36:53;6.43;;;1.42;;
67776;SDS011;54576;52.020;5.536;2023-04-25T13:39:18;4.35;;;0.90;;
67776;SDS011;54576;52.020;5.536;2023-04-25T13:41:44;3.85;;;0.98;;
67776;SDS011;54576;52.020;5.536;2023-04-25T13:44:09;3.40;;;0.73;;
67776;SDS011;54576;52.020;5.536;2023-04-25T13:46:35;3.83;;;0.70;;
67776;SDS011;54576;52.020;5.536;2023-04-25T13:49:02;3.88;;;0.77;;
67776;SDS011;54576;52.020;5.536;2023-04-25T13:51:30;3.17;;;0.77;;
67776;SDS011;54576;52.020;5.536;2023-04-25T13:53:56;3.88;;;1.10;;
67776;SDS011;54576;52.020;5.536;2023-04-25T13:56:22;5.25;;;0.77;;
67776;SDS011;54576;52.020;5.536;2023-04-25T13:58:48;5.90;;;1.42;;
67776;SDS011;54576;52.020;5.536;2023-04-25T14:01:15;6.10;;;1.10;;
67776;SDS011;54576;52.020;5.536;2023-04-25T14:03:40;3.40;;;0.70;;
67776;SDS011;54576;52.020;5.536;2023-04-25T14:06:07;3.63;;;1.25;;
67776;SDS011;54576;52.020;5.536;2023-04-25T14:08:33;3.35;;;1.02;;
67776;SDS011;54576;52.020;5.536;2023-04-25T14:10:59;7.45;;;1.20;;
67776;SDS011;54576;52.020;5.536;2023-04-25T14:13:25;8.27;;;2.42;;
67776;SDS011;54576;52.020;5.536;2023-04-25T14:15:51;2.58;;;1.08;;
67776;SDS011;54576;52.020;5.536;2023-04-25T14:18:16;9.48;;;1.30;;
67776;SDS011;54576;52.020;5.536;2023-04-25T14:20:42;6.70;;;1.25;;
67776;SDS011;54576;52.020;5.536;2023-04-25T14:23:08;7.80;;;1.27;;
67776;SDS011;54576;52.020;5.536;2023-04-25T14:25:34;4.82;;;0.90;;
67776;SDS011;54576;52.020;5.536;2023-04-25T14:28:01;5.68;;;1.30;;
67776;SDS011;54576;52.020;5.536;2023-04-25T14:30:26;3.78;;;0.93;;
67776;SDS011;54576;52.020;5.536;2023-04-25T14:32:52;5.38;;;1.13;;
67776;SDS011;54576;52.020;5.536;2023-04-25T14:35:18;2.53;;;1.35;;
67776;SDS011;54576;52.020;5.536;2023-04-25T14:37:44;7.47;;;1.25;;
67776;SDS011;54576;52.020;5.536;2023-04-25T14:40:10;5.25;;;0.80;;
67776;SDS011;54576;52.020;5.536;2023-04-25T14:42:38;8.00;;;1.15;;
67776;SDS011;54576;52.020;5.536;2023-04-25T14:45:05;5.05;;;1.20;;
67776;SDS011;54576;52.020;5.536;2023-04-25T14:47:32;8.07;;;1.83;;
67776;SDS011;54576;52.020;5.536;2023-04-25T14:49:58;4.45;;;1.20;;
67776;SDS011;54576;52.020;5.536;2023-04-25T14:52:23;5.43;;;1.10;;
67776;SDS011;54576;52.020;5.536;2023-04-25T14:54:50;7.93;;;1.48;;